createdAt,value
2023-04-02T00:02:46.761Z,101319.59
2023-04-02T00:07:51.339Z,101322.19
2023-04-02T00:13:01.858Z,101316.16
2023-04-02T00:18:07.302Z,101330.03
2023-04-02T00:23:12.651Z,101339.56
2023-04-02T00:28:17.060Z,101355.19
2023-04-02T00:33:23.126Z,101351.72
2023-04-02T00:38:27.365Z,101363.84
2023-04-02T00:43:32.626Z,101360.38
2023-04-02T00:48:42.167Z,101375.16
2023-04-02T00:53:47.057Z,101387.28
2023-04-02T00:58:53.091Z,101406.34
2023-04-02T01:03:59.148Z,101396.81
2023-04-02T01:09:13.158Z,101413.25
2023-04-02T01:14:20.898Z,101420.19
2023-04-02T01:19:58.530Z,101424.53
2023-04-02T01:25:02.094Z,101429.75
2023-04-02T01:30:08.386Z,101425.41
2023-04-02T01:35:11.826Z,101435.78
2023-04-02T01:40:24.109Z,101446.16
2023-04-02T01:45:28.860Z,101458.28
2023-04-02T01:50:37.041Z,101471.25
2023-04-02T01:55:43.216Z,101478.22
2023-04-02T02:00:51.131Z,101484.25
2023-04-02T02:05:54.697Z,101492.91
2023-04-02T02:10:59.565Z,101505.06
2023-04-02T02:16:05.157Z,101511.09
2023-04-02T02:21:09.153Z,101520.56
2023-04-02T02:26:12.985Z,101535.28
2023-04-02T02:31:22.646Z,101548.19
2023-04-02T02:36:33.464Z,101554.88
2023-04-02T02:41:41.440Z,101579.00
2023-04-02T02:46:50.107Z,101583.31
2023-04-02T02:51:56.871Z,101590.94
2023-04-02T02:57:10.143Z,101607.50
2023-04-02T03:02:16.095Z,101602.50
2023-04-02T03:07:22.094Z,101612.91
2023-04-02T03:12:32.642Z,101627.69
2023-04-02T03:17:40.302Z,101643.06
2023-04-02T03:22:46.464Z,101655.03
2023-04-02T03:27:50.729Z,101664.34
2023-04-02T03:32:58.407Z,101678.38
2023-04-02T03:38:03.674Z,101681.09
2023-04-02T03:43:15.388Z,101687.84
2023-04-02T03:48:25.041Z,101709.97
2023-04-02T03:53:32.097Z,101722.81
2023-04-02T03:58:39.950Z,101741.38
2023-04-02T04:03:47.022Z,101732.91
2023-04-02T04:08:54.696Z,101757.44
2023-04-02T04:14:01.042Z,101765.97
2023-04-02T04:19:08.156Z,101781.44
2023-04-02T04:24:20.416Z,101796.84
2023-04-02T04:29:38.152Z,101804.84
2023-04-02T04:34:53.469Z,101825.84
2023-04-02T04:40:07.562Z,101834.94
2023-04-02T04:45:20.126Z,101839.44
2023-04-02T04:50:30.787Z,101852.75
2023-04-02T04:55:38.776Z,101872.47
2023-04-02T05:01:10.160Z,101886.03
2023-04-02T05:06:19.865Z,101903.81
2023-04-02T05:11:27.782Z,101914.78
2023-04-02T05:16:34.575Z,101920.25
2023-04-02T05:21:43.541Z,101923.66
2023-04-02T05:26:48.757Z,101940.97
2023-04-02T05:31:58.826Z,101954.97
2023-04-02T05:37:04.665Z,101947.78
2023-04-02T05:42:18.738Z,101967.47
2023-04-02T05:47:30.771Z,101980.56
2023-04-02T05:52:39.348Z,101986.38
2023-04-02T05:57:56.708Z,102003.94
2023-04-02T06:03:17.651Z,102027.50
2023-04-02T06:08:23.969Z,102038.00
2023-04-02T06:13:27.165Z,102050.22
2023-04-02T06:18:32.894Z,102061.56
2023-04-02T06:23:41.304Z,102067.94
2023-04-02T06:28:47.863Z,102070.41
2023-04-02T06:33:55.026Z,102084.66
2023-04-02T06:39:05.855Z,102087.22
2023-04-02T06:44:13.982Z,102109.13
2023-04-02T06:49:39.881Z,102122.88
2023-04-02T06:54:46.498Z,102132.00
2023-04-02T06:59:49.837Z,102138.50
2023-04-02T07:05:00.303Z,102148.69
2023-04-02T07:10:06.953Z,102164.88
2023-04-02T07:15:12.323Z,102170.66
2023-04-02T07:20:26.780Z,102181.38
2023-04-02T07:25:31.858Z,102191.97
2023-04-02T07:30:34.680Z,102193.34
2023-04-02T07:35:37.874Z,102210.28
2023-04-02T07:40:42.283Z,102231.94
2023-04-02T07:45:45.200Z,102229.91
2023-04-02T07:50:48.070Z,102235.50
2023-04-02T07:55:54.519Z,102241.00
2023-04-02T08:00:57.560Z,102248.94
2023-04-02T08:06:00.389Z,102253.50
2023-04-02T08:11:04.677Z,102252.31
2023-04-02T08:16:08.120Z,102270.09
2023-04-02T08:21:12.653Z,102272.06
2023-04-02T08:26:19.599Z,102280.94
2023-04-02T08:31:23.558Z,102290.13
2023-04-02T08:36:28.763Z,102286.41
2023-04-02T08:41:38.732Z,102290.88
2023-04-02T08:46:45.633Z,102307.63
2023-04-02T08:51:48.612Z,102310.66
2023-04-02T08:56:57.990Z,102314.97
2023-04-02T09:02:06.543Z,102324.63
2023-04-02T09:07:13.075Z,102335.22
2023-04-02T09:12:20.566Z,102350.56
2023-04-02T09:17:27.471Z,102353.84
2023-04-02T09:22:31.680Z,102358.22
2023-04-02T09:27:36.918Z,102376.59
2023-04-02T09:32:50.093Z,102374.84
2023-04-02T09:38:13.318Z,102376.00
2023-04-02T09:43:19.549Z,102373.50
2023-04-02T09:48:26.157Z,102399.84
2023-04-02T09:53:32.597Z,102404.25
2023-04-02T09:58:37.120Z,102402.28
2023-04-02T10:03:43.608Z,102413.22
2023-04-02T10:08:46.820Z,102411.47
2023-04-02T10:13:54.118Z,102408.63
2023-04-02T10:18:59.382Z,102420.06
2023-04-02T10:24:03.054Z,102423.63
2023-04-02T10:29:21.144Z,102420.47
2023-04-02T10:34:25.937Z,102422.91
2023-04-02T10:39:35.459Z,102441.81
2023-04-02T10:44:45.174Z,102441.91
2023-04-02T10:49:52.411Z,102447.63
2023-04-02T10:54:57.310Z,102455.03
2023-04-02T11:00:09.903Z,102447.31
2023-04-02T11:05:20.842Z,102460.00
2023-04-02T11:10:24.205Z,102459.06
2023-04-02T11:15:28.634Z,102456.00
2023-04-02T11:20:55.737Z,102464.63
2023-04-02T11:26:30.836Z,102463.94
2023-04-02T11:31:35.513Z,102468.38
2023-04-02T11:37:01.151Z,102484.38
2023-04-02T11:42:07.389Z,102481.75
2023-04-02T11:47:19.979Z,102489.66
2023-04-02T11:52:26.237Z,102492.13
2023-04-02T11:58:08.571Z,102501.25
2023-04-02T12:03:30.836Z,102490.38
2023-04-02T12:08:50.892Z,102505.00
2023-04-02T12:14:00.786Z,102525.09
2023-04-02T12:19:09.707Z,102523.63
2023-04-02T12:24:19.101Z,102526.78
2023-04-02T12:29:26.091Z,102529.47
2023-04-02T12:34:31.141Z,102535.31
2023-04-02T12:39:35.066Z,102528.53
2023-04-02T12:44:37.977Z,102535.19
2023-04-02T12:49:43.477Z,102539.31
2023-04-02T12:54:48.019Z,102534.28
2023-04-02T12:59:50.899Z,102542.91
2023-04-02T13:04:57.020Z,102543.03
2023-04-02T13:10:01.299Z,102542.13
2023-04-02T13:15:06.488Z,102546.25
2023-04-02T13:20:31.093Z,102549.19
2023-04-02T13:25:36.658Z,102551.50
2023-04-02T13:30:39.490Z,102542.41
2023-04-02T13:35:44.265Z,102556.97
2023-04-02T13:40:47.165Z,102558.06
2023-04-02T13:45:51.521Z,102557.66
2023-04-02T13:50:55.849Z,102569.06
2023-04-02T13:55:58.663Z,102567.25
2023-04-02T14:01:01.944Z,102566.97
2023-04-02T14:06:11.195Z,102571.13
2023-04-02T14:11:24.854Z,102577.00
2023-04-02T14:16:37.145Z,102579.75
2023-04-02T14:21:50.139Z,102585.84
2023-04-02T14:27:06.866Z,102584.13
2023-04-02T14:32:12.440Z,102580.31
2023-04-02T14:37:23.142Z,102578.41
2023-04-02T14:42:31.219Z,102582.91
2023-04-02T14:47:38.485Z,102593.47
2023-04-02T14:52:45.647Z,102594.06
2023-04-02T14:57:52.505Z,102610.44
2023-04-02T15:02:56.961Z,102604.47
2023-04-02T15:08:04.618Z,102613.22
2023-04-02T15:13:12.681Z,102611.13
2023-04-02T15:18:17.299Z,102617.31
2023-04-02T15:23:29.131Z,102621.63
2023-04-02T15:28:35.751Z,102613.78
2023-04-02T15:33:46.393Z,102613.72
2023-04-02T15:38:54.032Z,102619.56
2023-04-02T15:44:00.194Z,102623.88
2023-04-02T15:49:20.103Z,102622.66
2023-04-02T15:54:33.437Z,102637.97
2023-04-02T15:59:45.525Z,102626.31
2023-04-02T16:04:54.719Z,102635.41
2023-04-02T16:10:06.964Z,102638.53
2023-04-02T16:15:16.496Z,102641.16
2023-04-02T16:20:21.792Z,102650.72
2023-04-02T16:25:28.273Z,102661.25
2023-04-02T16:30:40.493Z,102663.66
2023-04-02T16:35:46.848Z,102668.91
2023-04-02T16:41:07.698Z,102677.97
2023-04-02T16:46:25.104Z,102683.88
2023-04-02T16:51:39.917Z,102708.25
2023-04-02T16:56:54.492Z,102715.22
2023-04-02T17:02:01.284Z,102714.56
2023-04-02T17:07:12.316Z,102725.81
2023-04-02T17:12:21.342Z,102731.00
2023-04-02T17:17:24.572Z,102745.25
2023-04-02T17:22:49.313Z,102757.69
2023-04-02T17:27:55.708Z,102755.03
2023-04-02T17:32:58.571Z,102770.66
2023-04-02T17:38:06.793Z,102776.63
2023-04-02T17:43:14.937Z,102782.50
2023-04-02T17:48:21.955Z,102790.78
2023-04-02T17:53:42.368Z,102800.81
2023-04-02T17:59:00.038Z,102804.88
2023-04-02T18:04:12.533Z,102812.50
2023-04-02T18:09:36.027Z,102814.03
2023-04-02T18:14:50.881Z,102832.75
2023-04-02T18:19:57.408Z,102832.50
2023-04-02T18:25:24.661Z,102844.53
2023-04-02T18:30:32.162Z,102856.44
2023-04-02T18:35:35.909Z,102861.44
2023-04-02T18:40:43.650Z,102863.91
2023-04-02T18:45:56.711Z,102870.41
2023-04-02T18:51:00.847Z,102889.31
2023-04-02T18:56:05.496Z,102897.94
2023-04-02T19:01:11.193Z,102909.00
2023-04-02T19:06:19.215Z,102915.78
2023-04-02T19:11:28.697Z,102914.72
2023-04-02T19:16:50.162Z,102917.22
2023-04-02T19:22:05.897Z,102926.63
2023-04-02T19:27:14.622Z,102928.94
2023-04-02T19:32:24.826Z,102934.13
2023-04-02T19:37:32.126Z,102941.69
2023-04-02T19:42:44.777Z,102939.19
2023-04-02T19:47:49.415Z,102953.13
2023-04-02T19:52:52.197Z,102970.44
2023-04-02T19:58:04.525Z,102970.25
2023-04-02T20:03:17.162Z,102985.53
2023-04-02T20:08:20.053Z,102987.91
2023-04-02T20:13:22.936Z,102994.06
2023-04-02T20:18:27.131Z,102989.81
2023-04-02T20:23:29.912Z,102990.59
2023-04-02T20:28:33.076Z,102999.84
2023-04-02T20:33:37.455Z,103005.25
2023-04-02T20:38:40.359Z,103000.78
2023-04-02T20:43:43.150Z,103005.16
2023-04-02T20:48:47.418Z,103011.13
2023-04-02T20:53:50.269Z,103023.91
2023-04-02T20:58:53.398Z,103027.34
2023-04-02T21:03:58.652Z,103042.91
2023-04-02T21:09:02.362Z,103043.63
2023-04-02T21:14:05.417Z,103049.56
2023-04-02T21:19:10.761Z,103060.63
2023-04-02T21:24:13.649Z,103061.22
2023-04-02T21:29:16.557Z,103061.97
2023-04-02T21:34:20.891Z,103069.50
2023-04-02T21:39:25.028Z,103070.16
2023-04-02T21:44:27.860Z,103068.31
2023-04-02T21:49:32.179Z,103062.97
2023-04-02T21:54:34.962Z,103072.38
2023-04-02T21:59:37.780Z,103072.22
2023-04-02T22:04:41.988Z,103068.63
2023-04-02T22:09:44.882Z,103065.16
2023-04-02T22:14:47.978Z,103059.00
2023-04-02T22:19:52.212Z,103067.53
2023-04-02T22:24:56.212Z,103072.66
2023-04-02T22:29:59.057Z,103066.59
2023-04-02T22:35:03.234Z,103075.25
2023-04-02T22:40:06.908Z,103075.16
2023-04-02T22:45:10.332Z,103077.72
2023-04-02T22:50:14.570Z,103078.47
2023-04-02T22:55:18.052Z,103080.31
2023-04-02T23:00:21.086Z,103080.22
2023-04-02T23:05:25.482Z,103079.72
2023-04-02T23:10:29.177Z,103091.47
2023-04-02T23:15:33.830Z,103087.06
2023-04-02T23:20:38.274Z,103083.00
2023-04-02T23:25:41.392Z,103095.03
2023-04-02T23:30:44.689Z,103086.56
2023-04-02T23:35:48.863Z,103095.34
2023-04-02T23:40:51.663Z,103095.94
2023-04-02T23:45:54.436Z,103091.69
2023-04-02T23:50:58.637Z,103095.66
2023-04-02T23:56:01.500Z,103102.63
